createdAt,value
2022-11-10T00:03:40.190Z,58.90
2022-11-10T00:09:03.415Z,59.00
2022-11-10T00:14:42.641Z,59.00
2022-11-10T00:20:06.024Z,59.00
2022-11-10T00:25:29.106Z,58.90
2022-11-10T00:30:50.642Z,59.10
2022-11-10T00:36:12.370Z,59.20
2022-11-10T00:41:35.508Z,59.30
2022-11-10T00:46:57.332Z,59.50
2022-11-10T00:52:18.904Z,59.50
2022-11-10T00:57:42.152Z,59.60
2022-11-10T01:04:10.100Z,59.50
2022-11-10T01:09:31.706Z,59.70
2022-11-10T01:14:54.832Z,59.30
2022-11-10T01:20:16.886Z,59.20
2022-11-10T01:25:38.516Z,59.30
2022-11-10T01:31:02.485Z,59.40
2022-11-10T01:36:23.964Z,59.40
2022-11-10T01:41:45.579Z,60.00
2022-11-10T01:47:08.614Z,59.30
2022-11-10T01:52:30.129Z,59.50
2022-11-10T01:57:52.222Z,59.40
2022-11-10T02:03:20.439Z,59.40
2022-11-10T02:08:44.110Z,59.60
2022-11-10T02:14:06.187Z,59.60
2022-11-10T02:19:29.219Z,59.70
2022-11-10T02:24:52.056Z,59.70
2022-11-10T02:30:14.838Z,59.80
2022-11-10T02:35:36.496Z,59.70
2022-11-10T02:40:59.585Z,59.70
2022-11-10T02:46:21.492Z,59.70
2022-11-10T02:51:43.364Z,59.70
2022-11-10T02:57:06.414Z,59.70
2022-11-10T03:02:32.072Z,59.70
2022-11-10T03:07:55.410Z,59.60
2022-11-10T03:13:18.724Z,59.60
2022-11-10T03:18:40.482Z,59.60
2022-11-10T03:24:01.934Z,59.50
2022-11-10T03:29:24.800Z,59.50
2022-11-10T03:34:46.551Z,59.50
2022-11-10T03:40:10.004Z,59.60
2022-11-10T03:45:32.673Z,59.50
2022-11-10T03:50:54.061Z,59.60
2022-11-10T03:56:15.829Z,59.50
2022-11-10T04:01:39.063Z,59.60
2022-11-10T04:07:17.897Z,59.70
2022-11-10T04:12:56.969Z,59.60
2022-11-10T04:18:24.589Z,59.70
2022-11-10T04:23:46.334Z,59.80
2022-11-10T04:29:09.628Z,59.80
2022-11-10T04:34:32.512Z,59.80
2022-11-10T04:39:54.009Z,59.80
2022-11-10T04:45:15.821Z,59.80
2022-11-10T04:50:38.956Z,59.90
2022-11-10T04:56:00.873Z,60.00
2022-11-10T05:01:24.538Z,60.00
2022-11-10T05:06:47.177Z,60.00
2022-11-10T05:12:08.582Z,60.00
2022-11-10T05:17:30.143Z,60.00
2022-11-10T05:23:11.720Z,60.00
2022-11-10T05:28:33.431Z,60.10
2022-11-10T05:33:55.163Z,60.00
2022-11-10T05:39:17.904Z,60.10
2022-11-10T05:44:39.584Z,60.00
2022-11-10T05:50:00.976Z,60.00
2022-11-10T05:55:25.785Z,60.00
2022-11-10T06:00:47.702Z,60.10
2022-11-10T06:06:09.317Z,60.10
2022-11-10T06:11:32.379Z,60.00
2022-11-10T06:16:53.873Z,59.80
2022-11-10T06:22:15.301Z,59.80
2022-11-10T06:27:38.269Z,59.80
2022-11-10T06:32:59.831Z,59.70
2022-11-10T06:38:21.629Z,59.80
2022-11-10T06:43:44.633Z,59.90
2022-11-10T06:49:06.224Z,59.90
2022-11-10T06:54:28.002Z,59.80
2022-11-10T06:59:50.926Z,59.90
2022-11-10T07:05:12.495Z,60.20
2022-11-10T07:10:34.968Z,60.40
2022-11-10T07:15:57.746Z,60.50
2022-11-10T07:21:19.158Z,60.60
2022-11-10T07:26:40.697Z,60.60
2022-11-10T07:32:03.612Z,60.80
2022-11-10T07:37:25.289Z,61.10
2022-11-10T07:42:47.035Z,61.20
2022-11-10T07:48:10.502Z,61.30
2022-11-10T07:53:32.331Z,61.40
2022-11-10T07:58:53.698Z,61.40
2022-11-10T08:04:16.657Z,61.50
2022-11-10T08:09:38.362Z,61.50
2022-11-10T08:14:59.864Z,61.60
2022-11-10T08:20:22.719Z,61.50
2022-11-10T08:25:44.580Z,62.40
2022-11-10T08:31:06.671Z,61.60
2022-11-10T08:36:29.603Z,61.50
2022-11-10T08:41:51.228Z,61.60
2022-11-10T08:47:12.812Z,61.60
2022-11-10T08:52:35.618Z,61.60
2022-11-10T08:58:00.603Z,61.90
2022-11-10T09:03:24.800Z,62.20
2022-11-10T09:08:48.089Z,62.30
2022-11-10T09:14:09.743Z,62.30
2022-11-10T09:19:31.333Z,62.40
2022-11-10T09:24:54.305Z,62.30
2022-11-10T09:30:17.980Z,62.00
2022-11-10T09:35:39.682Z,62.00
2022-11-10T09:41:05.512Z,62.10
2022-11-10T09:46:31.414Z,62.40
2022-11-10T09:51:54.597Z,62.30
2022-11-10T09:57:21.274Z,62.10
2022-11-10T10:02:48.870Z,62.30
2022-11-10T10:08:14.807Z,61.80
2022-11-10T10:13:56.214Z,61.80
2022-11-10T10:19:27.107Z,61.80
2022-11-10T10:24:50.069Z,61.70
2022-11-10T10:30:19.243Z,61.70
2022-11-10T10:35:42.045Z,61.80
2022-11-10T10:41:16.254Z,61.70
2022-11-10T10:46:47.340Z,61.40
2022-11-10T10:52:13.775Z,61.40
2022-11-10T10:57:35.408Z,61.70
2022-11-10T11:03:07.502Z,61.60
2022-11-10T11:08:29.331Z,61.30
2022-11-10T11:13:50.950Z,61.20
2022-11-10T11:19:13.673Z,61.60
2022-11-10T11:24:43.082Z,61.60
2022-11-10T11:30:09.198Z,61.60
2022-11-10T11:35:42.484Z,61.40
2022-11-10T11:41:15.472Z,61.10
2022-11-10T11:46:49.399Z,61.10
2022-11-10T11:52:22.307Z,60.60
2022-11-10T11:57:59.057Z,60.50
2022-11-10T12:03:37.447Z,60.60
2022-11-10T12:09:05.409Z,60.30
2022-11-10T12:14:50.107Z,60.40
2022-11-10T12:20:26.367Z,59.80
2022-11-10T12:26:00.592Z,59.60
2022-11-10T12:31:24.601Z,60.10
2022-11-10T12:36:47.650Z,60.30
2022-11-10T12:42:15.966Z,60.40
2022-11-10T12:47:43.788Z,60.00
2022-11-10T12:53:15.355Z,59.60
2022-11-10T12:58:38.561Z,59.00
2022-11-10T13:04:02.007Z,59.00
2022-11-10T13:09:25.948Z,58.80
2022-11-10T13:14:49.576Z,59.20
2022-11-10T13:20:48.389Z,59.20
2022-11-10T13:26:12.731Z,58.90
2022-11-10T13:31:49.887Z,58.40
2022-11-10T13:37:46.891Z,57.80
2022-11-10T13:43:28.167Z,57.40
2022-11-10T13:49:17.131Z,57.60
2022-11-10T13:54:53.746Z,57.10
2022-11-10T14:00:28.175Z,57.10
2022-11-10T14:06:08.984Z,56.10
2022-11-10T14:11:36.810Z,55.90
2022-11-10T14:16:59.198Z,55.50
2022-11-10T14:22:27.482Z,55.80
2022-11-10T14:27:53.740Z,55.90
2022-11-10T14:33:18.835Z,56.20
2022-11-10T14:38:45.722Z,56.40
2022-11-10T14:44:08.950Z,56.00
2022-11-10T14:49:30.932Z,56.10
2022-11-10T14:54:54.293Z,55.70
2022-11-10T15:00:25.073Z,55.70
2022-11-10T15:05:46.897Z,55.50
2022-11-10T15:11:35.616Z,56.00
2022-11-10T15:17:04.369Z,55.80
2022-11-10T15:22:30.702Z,55.80
2022-11-10T15:28:00.979Z,55.60
2022-11-10T15:33:27.259Z,55.60
2022-11-10T15:39:03.339Z,55.80
2022-11-10T15:44:28.341Z,55.70
2022-11-10T15:49:50.286Z,56.00
2022-11-10T15:55:20.736Z,56.00
2022-11-10T16:00:44.078Z,55.90
2022-11-10T16:06:06.136Z,56.00
2022-11-10T16:11:28.661Z,56.30
2022-11-10T16:16:51.759Z,56.20
2022-11-10T16:22:13.586Z,56.10
2022-11-10T16:27:36.002Z,56.30
2022-11-10T16:32:59.082Z,56.30
2022-11-10T16:38:23.369Z,56.30
2022-11-10T16:43:44.991Z,56.40
2022-11-10T16:49:24.140Z,56.50
2022-11-10T16:54:45.906Z,56.50
2022-11-10T17:00:08.910Z,56.60
2022-11-10T17:05:32.400Z,56.40
2022-11-10T17:10:56.761Z,56.60
2022-11-10T17:16:29.272Z,56.40
2022-11-10T17:21:54.031Z,56.40
2022-11-10T17:27:16.827Z,56.50
2022-11-10T17:33:03.684Z,56.60
2022-11-10T17:38:25.529Z,56.50
2022-11-10T17:43:47.673Z,56.40
2022-11-10T17:49:09.808Z,56.50
2022-11-10T17:54:32.969Z,56.50
2022-11-10T17:59:55.372Z,56.60
2022-11-10T18:05:19.371Z,56.70
2022-11-10T18:10:44.358Z,56.80
2022-11-10T18:16:08.892Z,56.90
2022-11-10T18:21:30.127Z,56.90
2022-11-10T18:26:52.891Z,57.00
2022-11-10T18:32:14.505Z,57.00
2022-11-10T18:37:39.072Z,57.00
2022-11-10T18:43:07.163Z,57.10
2022-11-10T18:48:32.149Z,56.60
2022-11-10T18:53:57.543Z,56.40
2022-11-10T18:59:20.423Z,56.20
2022-11-10T19:04:42.383Z,56.30
2022-11-10T19:10:04.238Z,56.50
2022-11-10T19:15:27.487Z,57.40
2022-11-10T19:20:49.306Z,56.80
2022-11-10T19:26:16.750Z,56.90
2022-11-10T19:31:43.720Z,56.90
2022-11-10T19:37:05.799Z,57.00
2022-11-10T19:42:27.476Z,57.00
2022-11-10T19:47:50.385Z,57.00
2022-11-10T19:53:11.722Z,56.60
2022-11-10T19:58:36.302Z,56.90
2022-11-10T20:04:00.700Z,57.10
2022-11-10T20:09:22.373Z,57.40
2022-11-10T20:14:44.135Z,57.30
2022-11-10T20:20:08.869Z,57.30
2022-11-10T20:25:30.670Z,57.40
2022-11-10T20:30:52.035Z,57.50
2022-11-10T20:36:20.413Z,57.70
2022-11-10T20:41:42.448Z,57.80
2022-11-10T20:47:04.492Z,57.70
2022-11-10T20:52:28.015Z,57.50
2022-11-10T20:57:49.908Z,57.60
2022-11-10T21:03:11.504Z,57.50
2022-11-10T21:08:35.105Z,57.40
2022-11-10T21:13:56.841Z,57.40
2022-11-10T21:19:18.290Z,56.90
2022-11-10T21:24:41.236Z,57.00
2022-11-10T21:30:03.339Z,57.10
2022-11-10T21:35:26.116Z,57.40
2022-11-10T21:40:49.177Z,57.20
2022-11-10T21:46:10.624Z,57.50
2022-11-10T21:51:32.538Z,57.60
2022-11-10T21:56:55.698Z,57.70
2022-11-10T22:02:17.192Z,57.80
2022-11-10T22:07:39.776Z,57.70
2022-11-10T22:13:20.376Z,57.60
2022-11-10T22:18:42.169Z,57.50
2022-11-10T22:24:21.090Z,57.80
2022-11-10T22:29:44.861Z,57.90
2022-11-10T22:35:07.504Z,58.10
2022-11-10T22:40:46.730Z,57.70
2022-11-10T22:46:09.839Z,57.50
2022-11-10T22:51:32.375Z,57.60
2022-11-10T22:56:54.231Z,57.60
2022-11-10T23:02:17.248Z,57.70
2022-11-10T23:07:38.773Z,57.70
2022-11-10T23:13:00.378Z,57.50
2022-11-10T23:18:23.467Z,57.40
2022-11-10T23:23:45.972Z,57.40
2022-11-10T23:29:07.469Z,57.20
2022-11-10T23:34:30.291Z,57.20
2022-11-10T23:39:51.807Z,57.30
2022-11-10T23:45:13.522Z,57.40
2022-11-10T23:50:36.543Z,57.40
2022-11-10T23:55:59.033Z,57.60
